createdAt,value
2023-04-02T00:00:11.173Z,4.91
2023-04-02T00:01:11.177Z,4.89
2023-04-02T00:02:11.157Z,4.92
2023-04-02T00:03:11.255Z,4.94
2023-04-02T00:04:11.204Z,4.96
2023-04-02T00:05:11.116Z,4.92
2023-04-02T00:06:11.086Z,4.92
2023-04-02T00:07:11.091Z,4.91
2023-04-02T00:08:11.078Z,4.88
2023-04-02T00:09:11.100Z,4.88
2023-04-02T00:10:11.109Z,4.88
2023-04-02T00:11:11.063Z,4.88
2023-04-02T00:12:11.038Z,4.86
2023-04-02T00:13:11.029Z,4.86
2023-04-02T00:14:11.026Z,4.86
2023-04-02T00:15:11.013Z,4.84
2023-04-02T00:16:11.023Z,4.86
2023-04-02T00:17:10.990Z,4.84
2023-04-02T00:18:11.044Z,4.89
2023-04-02T00:19:10.967Z,4.88
2023-04-02T00:20:10.980Z,4.88
2023-04-02T00:21:10.982Z,4.89
2023-04-02T00:22:10.955Z,4.88
2023-04-02T00:23:10.933Z,4.86
2023-04-02T00:24:10.978Z,4.83
2023-04-02T00:25:10.915Z,4.79
2023-04-02T00:26:10.888Z,4.77
2023-04-02T00:27:10.910Z,4.77
2023-04-02T00:28:10.882Z,4.80
2023-04-02T00:29:10.901Z,4.75
2023-04-02T00:30:10.849Z,4.69
2023-04-02T00:31:10.843Z,4.65
2023-04-02T00:32:10.930Z,4.65
2023-04-02T00:33:10.864Z,4.67
2023-04-02T00:34:10.812Z,4.69
2023-04-02T00:35:10.817Z,4.67
2023-04-02T00:36:10.834Z,4.64
2023-04-02T00:37:10.852Z,4.61
2023-04-02T00:38:10.832Z,4.62
2023-04-02T00:39:10.792Z,4.64
2023-04-02T00:40:10.764Z,4.67
2023-04-02T00:41:10.780Z,4.62
2023-04-02T00:42:10.742Z,4.58
2023-04-02T00:43:10.730Z,4.57
2023-04-02T00:44:10.739Z,4.62
2023-04-02T00:45:10.713Z,4.58
2023-04-02T00:46:10.722Z,4.58
2023-04-02T00:47:10.727Z,4.57
2023-04-02T00:48:10.704Z,4.58
2023-04-02T00:49:10.702Z,4.58
2023-04-02T00:50:10.684Z,4.55
2023-04-02T00:51:10.673Z,4.52
2023-04-02T00:52:10.700Z,4.51
2023-04-02T00:53:10.658Z,4.50
2023-04-02T00:54:17.131Z,4.46
2023-04-02T00:55:10.610Z,4.54
2023-04-02T00:56:10.583Z,4.52
2023-04-02T00:57:10.635Z,4.52
2023-04-02T00:58:10.568Z,4.50
2023-04-02T00:59:10.575Z,4.46
2023-04-02T01:00:10.585Z,4.43
2023-04-02T01:01:10.675Z,4.42
2023-04-02T01:02:10.565Z,4.44
2023-04-02T01:03:10.838Z,4.44
2023-04-02T01:04:10.506Z,4.44
2023-04-02T01:05:10.523Z,4.50
2023-04-02T01:06:10.800Z,4.52
2023-04-02T01:07:10.478Z,4.51
2023-04-02T01:08:10.480Z,4.50
2023-04-02T01:09:10.474Z,4.47
2023-04-02T01:10:10.447Z,4.44
2023-04-02T01:11:10.466Z,4.50
2023-04-02T01:12:10.465Z,4.52
2023-04-02T01:13:10.465Z,4.43
2023-04-02T01:14:10.417Z,4.44
2023-04-02T01:15:10.399Z,4.47
2023-04-02T01:16:10.435Z,4.46
2023-04-02T01:17:10.376Z,4.42
2023-04-02T01:18:10.403Z,4.39
2023-04-02T01:19:10.384Z,4.34
2023-04-02T01:20:10.407Z,4.39
2023-04-02T01:21:10.335Z,4.39
2023-04-02T01:22:10.371Z,4.40
2023-04-02T01:23:10.313Z,4.36
2023-04-02T01:24:10.347Z,4.28
2023-04-02T01:25:10.294Z,4.33
2023-04-02T01:26:10.337Z,4.32
2023-04-02T01:27:10.267Z,4.25
2023-04-02T01:28:10.261Z,4.19
2023-04-02T01:29:10.299Z,4.21
2023-04-02T01:30:10.302Z,4.14
2023-04-02T01:31:10.306Z,4.14
2023-04-02T01:32:10.240Z,4.07
2023-04-02T01:33:10.231Z,4.03
2023-04-02T01:34:10.219Z,4.01
2023-04-02T01:35:10.207Z,3.97
2023-04-02T01:36:10.208Z,3.98
2023-04-02T01:37:10.187Z,4.01
2023-04-02T01:38:10.162Z,3.97
2023-04-02T01:39:10.153Z,4.00
2023-04-02T01:40:10.231Z,3.97
2023-04-02T01:41:10.134Z,3.92
2023-04-02T01:42:10.164Z,3.97
2023-04-02T01:43:10.103Z,3.90
2023-04-02T01:44:10.138Z,3.90
2023-04-02T01:45:10.099Z,3.90
2023-04-02T01:46:10.141Z,4.03
2023-04-02T01:47:10.058Z,4.08
2023-04-02T01:48:10.084Z,4.03
2023-04-02T01:49:10.094Z,4.04
2023-04-02T01:50:10.112Z,4.07
2023-04-02T01:51:10.074Z,4.00
2023-04-02T01:52:10.042Z,3.94
2023-04-02T01:53:10.023Z,3.98
2023-04-02T01:54:09.992Z,3.90
2023-04-02T01:55:10.013Z,3.90
2023-04-02T01:56:10.007Z,3.90
2023-04-02T01:57:10.047Z,3.88
2023-04-02T01:58:09.977Z,3.85
2023-04-02T01:59:09.951Z,3.90
2023-04-02T02:00:09.979Z,3.97
2023-04-02T02:01:09.945Z,3.96
2023-04-02T02:02:09.940Z,3.98
2023-04-02T02:03:10.042Z,3.89
2023-04-02T02:04:09.923Z,3.90
2023-04-02T02:05:09.873Z,3.85
2023-04-02T02:06:09.983Z,3.85
2023-04-02T02:07:16.424Z,3.80
2023-04-02T02:08:09.846Z,3.80
2023-04-02T02:09:09.872Z,3.78
2023-04-02T02:10:09.859Z,3.72
2023-04-02T02:11:09.874Z,3.76
2023-04-02T02:12:09.836Z,3.70
2023-04-02T02:13:09.852Z,3.70
2023-04-02T02:14:09.846Z,3.70
2023-04-02T02:15:09.811Z,3.71
2023-04-02T02:16:09.831Z,3.72
2023-04-02T02:17:09.781Z,3.70
2023-04-02T02:18:09.777Z,3.70
2023-04-02T02:19:09.761Z,3.75
2023-04-02T02:20:09.753Z,3.79
2023-04-02T02:21:09.749Z,3.83
2023-04-02T02:22:09.742Z,3.80
2023-04-02T02:23:09.705Z,3.86
2023-04-02T02:24:09.727Z,3.80
2023-04-02T02:25:09.699Z,3.80
2023-04-02T02:26:09.677Z,3.80
2023-04-02T02:27:09.686Z,3.88
2023-04-02T02:28:09.654Z,3.79
2023-04-02T02:29:09.638Z,3.83
2023-04-02T02:30:09.655Z,3.88
2023-04-02T02:31:09.629Z,3.85
2023-04-02T02:32:09.696Z,3.85
2023-04-02T02:33:09.636Z,3.80
2023-04-02T02:34:09.608Z,3.82
2023-04-02T02:35:09.659Z,3.88
2023-04-02T02:36:09.741Z,3.92
2023-04-02T02:37:09.636Z,3.86
2023-04-02T02:38:09.579Z,3.86
2023-04-02T02:39:09.582Z,3.89
2023-04-02T02:40:09.577Z,3.83
2023-04-02T02:41:09.597Z,3.88
2023-04-02T02:42:09.572Z,3.83
2023-04-02T02:43:09.537Z,3.75
2023-04-02T02:44:09.501Z,3.61
2023-04-02T02:45:09.597Z,3.60
2023-04-02T02:46:09.514Z,3.49
2023-04-02T02:47:09.477Z,3.42
2023-04-02T02:48:09.607Z,3.36
2023-04-02T02:49:09.489Z,3.30
2023-04-02T02:50:09.436Z,3.27
2023-04-02T02:51:15.161Z,3.23
2023-04-02T02:52:09.417Z,3.23
2023-04-02T02:53:09.403Z,3.24
2023-04-02T02:54:09.403Z,3.20
2023-04-02T02:55:09.405Z,3.28
2023-04-02T02:56:09.374Z,3.28
2023-04-02T02:57:09.527Z,3.28
2023-04-02T02:58:09.392Z,3.24
2023-04-02T02:59:09.354Z,3.24
2023-04-02T03:00:09.366Z,3.23
2023-04-02T03:01:09.391Z,3.25
2023-04-02T03:02:09.397Z,3.20
2023-04-02T03:03:09.445Z,3.18
2023-04-02T03:04:09.488Z,3.18
2023-04-02T03:05:09.283Z,3.16
2023-04-02T03:06:09.313Z,3.20
2023-04-02T03:07:09.274Z,3.15
2023-04-02T03:08:09.263Z,3.15
2023-04-02T03:09:09.300Z,3.12
2023-04-02T03:10:09.287Z,3.12
2023-04-02T03:11:09.227Z,3.06
2023-04-02T03:12:09.215Z,3.03
2023-04-02T03:13:09.219Z,3.06
2023-04-02T03:14:09.205Z,3.06
2023-04-02T03:15:09.194Z,3.05
2023-04-02T03:16:09.293Z,3.09
2023-04-02T03:17:09.153Z,3.15
2023-04-02T03:18:09.164Z,3.07
2023-04-02T03:19:20.219Z,3.03
2023-04-02T03:20:09.170Z,3.02
2023-04-02T03:21:09.120Z,3.10
2023-04-02T03:22:09.114Z,3.07
2023-04-02T03:23:09.094Z,3.10
2023-04-02T03:24:09.125Z,3.12
2023-04-02T03:25:09.110Z,3.21
2023-04-02T03:26:09.061Z,3.28
2023-04-02T03:27:09.166Z,3.39
2023-04-02T03:28:09.060Z,3.44
2023-04-02T03:29:09.155Z,3.47
2023-04-02T03:30:09.047Z,3.28
2023-04-02T03:31:09.047Z,3.15
2023-04-02T03:32:09.013Z,3.12
2023-04-02T03:33:09.030Z,3.03
2023-04-02T03:34:09.008Z,2.97
2023-04-02T03:35:09.019Z,2.94
2023-04-02T03:36:09.018Z,2.97
2023-04-02T03:37:09.033Z,3.00
2023-04-02T03:38:09.017Z,3.05
2023-04-02T03:39:08.934Z,2.97
2023-04-02T03:40:09.047Z,2.95
2023-04-02T03:41:08.931Z,2.88
2023-04-02T03:42:08.927Z,2.97
2023-04-02T03:43:08.926Z,2.98
2023-04-02T03:44:08.915Z,2.98
2023-04-02T03:45:08.885Z,2.97
2023-04-02T03:46:08.931Z,2.94
2023-04-02T03:47:08.877Z,2.88
2023-04-02T03:48:08.890Z,2.85
2023-04-02T03:49:08.865Z,2.82
2023-04-02T03:50:08.848Z,2.76
2023-04-02T03:51:08.828Z,2.73
2023-04-02T03:52:08.819Z,2.76
2023-04-02T03:53:08.850Z,2.74
2023-04-02T03:54:08.849Z,2.74
2023-04-02T03:55:08.792Z,2.74
2023-04-02T03:56:08.781Z,2.70
2023-04-02T03:57:08.840Z,2.71
2023-04-02T03:58:08.764Z,2.73
2023-04-02T03:59:08.749Z,2.77
2023-04-02T04:00:08.766Z,2.79
2023-04-02T04:01:08.740Z,2.82
2023-04-02T04:02:08.808Z,2.87
2023-04-02T04:03:08.810Z,2.85
2023-04-02T04:04:08.724Z,2.81
2023-04-02T04:05:08.679Z,2.79
2023-04-02T04:06:08.689Z,2.81
2023-04-02T04:07:08.653Z,2.73
2023-04-02T04:08:08.716Z,2.69
2023-04-02T04:09:08.644Z,2.70
2023-04-02T04:10:08.641Z,2.74
2023-04-02T04:11:08.675Z,2.71
2023-04-02T04:12:08.630Z,2.66
2023-04-02T04:13:08.613Z,2.63
2023-04-02T04:14:08.604Z,2.58
2023-04-02T04:15:08.588Z,2.58
2023-04-02T04:16:08.584Z,2.55
2023-04-02T04:17:08.586Z,2.56
2023-04-02T04:18:08.604Z,2.56
2023-04-02T04:19:08.567Z,2.58
2023-04-02T04:20:08.551Z,2.56
2023-04-02T04:21:08.610Z,2.58
2023-04-02T04:22:08.941Z,2.63
2023-04-02T04:23:08.489Z,2.61
2023-04-02T04:24:08.517Z,2.58
2023-04-02T04:25:08.501Z,2.52
2023-04-02T04:26:08.516Z,2.51
2023-04-02T04:27:08.439Z,2.49
2023-04-02T04:28:08.462Z,2.46
2023-04-02T04:29:08.440Z,2.48
2023-04-02T04:30:08.471Z,2.53
2023-04-02T04:32:31.521Z,2.55
2023-04-02T04:33:32.471Z,2.55
2023-04-02T04:34:32.571Z,2.53
2023-04-02T04:35:32.544Z,2.51
2023-04-02T04:36:32.402Z,2.49
2023-04-02T04:37:32.398Z,2.49
2023-04-02T04:38:32.381Z,2.52
2023-04-02T04:39:32.361Z,2.49
2023-04-02T04:40:32.498Z,2.48
2023-04-02T04:41:32.420Z,2.48
2023-04-02T04:42:32.336Z,2.46
2023-04-02T04:43:32.355Z,2.46
2023-04-02T04:44:32.355Z,2.46
2023-04-02T04:45:32.540Z,2.51
2023-04-02T04:46:32.336Z,2.51
2023-04-02T04:47:32.339Z,2.49
2023-04-02T04:48:32.987Z,2.46
2023-04-02T04:49:32.269Z,2.44
2023-04-02T04:50:32.262Z,2.41
2023-04-02T04:51:32.264Z,2.44
2023-04-02T04:52:32.204Z,2.44
2023-04-02T04:53:32.278Z,2.45
2023-04-02T04:54:32.241Z,2.46
2023-04-02T04:55:32.194Z,2.45
2023-04-02T04:56:32.218Z,2.44
2023-04-02T04:57:32.190Z,2.44
2023-04-02T04:58:32.163Z,2.48
2023-04-02T04:59:32.221Z,2.53
2023-04-02T05:00:32.174Z,2.52
2023-04-02T05:01:32.201Z,2.52
2023-04-02T05:02:32.154Z,2.55
2023-04-02T05:03:32.131Z,2.51
2023-04-02T05:04:32.126Z,2.52
2023-04-02T05:05:32.144Z,2.51
2023-04-02T05:06:32.126Z,2.48
2023-04-02T05:07:32.084Z,2.46
2023-04-02T05:08:32.164Z,2.44
2023-04-02T05:09:32.078Z,2.48
2023-04-02T05:10:32.049Z,2.49
2023-04-02T05:11:32.133Z,2.46
2023-04-02T05:12:32.028Z,2.44
2023-04-02T05:13:32.111Z,2.44
2023-04-02T05:14:32.195Z,2.46
2023-04-02T05:15:32.039Z,2.53
2023-04-02T05:16:32.107Z,2.46
2023-04-02T05:17:32.743Z,2.52
2023-04-02T05:18:31.952Z,2.41
2023-04-02T05:19:32.217Z,2.34
2023-04-02T05:20:32.016Z,2.37
2023-04-02T05:21:31.934Z,2.35
2023-04-02T05:22:31.922Z,2.33
2023-04-02T05:23:31.936Z,2.31
2023-04-02T05:24:31.921Z,2.23
2023-04-02T05:25:31.928Z,2.20
2023-04-02T05:26:31.922Z,2.23
2023-04-02T05:27:31.878Z,2.17
2023-04-02T05:28:31.846Z,2.19
2023-04-02T05:29:31.874Z,2.17
2023-04-02T05:30:31.909Z,2.27
2023-04-02T05:31:31.877Z,2.33
2023-04-02T05:32:31.875Z,2.33
2023-04-02T05:33:31.827Z,2.31
2023-04-02T05:34:31.801Z,2.26
2023-04-02T05:35:31.886Z,2.17
2023-04-02T05:36:31.779Z,2.17
2023-04-02T05:37:31.813Z,2.15
2023-04-02T05:38:31.820Z,2.12
2023-04-02T05:39:31.778Z,2.08
2023-04-02T05:40:31.787Z,2.04
2023-04-02T05:41:31.857Z,2.01
2023-04-02T05:42:31.771Z,1.99
2023-04-02T05:43:40.797Z,2.04
2023-04-02T05:44:31.741Z,2.15
2023-04-02T05:45:31.727Z,2.13
2023-04-02T05:46:31.698Z,2.09
2023-04-02T05:47:31.730Z,2.12
2023-04-02T05:48:31.874Z,2.09
2023-04-02T05:49:31.684Z,2.09
2023-04-02T05:50:31.644Z,2.06
2023-04-02T05:51:31.682Z,2.04
2023-04-02T05:52:31.625Z,2.04
2023-04-02T05:53:31.648Z,2.10
2023-04-02T05:54:31.619Z,2.06
2023-04-02T05:55:31.624Z,2.08
2023-04-02T05:56:31.637Z,2.06
2023-04-02T05:57:42.786Z,2.08
2023-04-02T05:58:36.309Z,2.17
2023-04-02T05:59:31.631Z,2.13
2023-04-02T06:00:31.565Z,2.20
2023-04-02T06:01:31.680Z,2.20
2023-04-02T06:02:31.698Z,2.10
2023-04-02T06:03:31.657Z,2.02
2023-04-02T06:04:31.532Z,1.97
2023-04-02T06:05:31.538Z,1.99
2023-04-02T06:06:31.500Z,1.98
2023-04-02T06:07:31.495Z,1.98
2023-04-02T06:08:42.073Z,1.98
2023-04-02T06:09:31.452Z,1.99
2023-04-02T06:10:31.535Z,2.04
2023-04-02T06:11:31.463Z,2.04
2023-04-02T06:12:31.450Z,2.06
2023-04-02T06:13:31.723Z,2.06
2023-04-02T06:18:18.692Z,2.16
2023-04-02T06:19:19.614Z,2.15
2023-04-02T06:20:19.635Z,2.20
2023-04-02T06:21:19.589Z,2.17
2023-04-02T06:22:19.495Z,2.15
2023-04-02T06:33:28.806Z,1.94
2023-04-02T06:34:29.583Z,1.93
2023-04-02T06:35:29.626Z,1.93
2023-04-02T06:45:16.986Z,2.08
2023-04-02T06:46:17.966Z,2.10
2023-04-02T06:47:17.964Z,2.08
2023-04-02T06:48:17.912Z,2.06
2023-04-02T06:49:17.906Z,2.13
2023-04-02T06:50:17.948Z,2.12
2023-04-02T06:51:17.909Z,2.16
2023-04-02T06:52:17.889Z,2.16
2023-04-02T06:53:17.902Z,2.17
2023-04-02T06:54:17.974Z,2.17
2023-04-02T06:55:18.036Z,2.26
2023-04-02T06:56:17.947Z,2.31
2023-04-02T07:12:09.106Z,2.48
2023-04-02T07:13:09.841Z,2.46
2023-04-02T07:14:09.722Z,2.49
2023-04-02T07:15:10.680Z,2.46
2023-04-02T07:16:09.786Z,2.51
2023-04-02T07:17:09.687Z,2.45
2023-04-02T07:18:09.900Z,2.48
2023-04-02T07:19:09.667Z,2.38
2023-04-02T07:20:09.678Z,2.48
2023-04-02T07:21:09.721Z,2.48
2023-04-02T07:22:09.698Z,2.48
2023-04-02T07:23:09.617Z,2.46
2023-04-02T07:24:09.649Z,2.45
2023-04-02T07:25:09.605Z,2.49
2023-04-02T07:26:09.593Z,2.40
2023-04-02T07:27:09.616Z,2.44
2023-04-02T07:28:09.611Z,2.41
2023-04-02T07:29:09.562Z,2.41
2023-04-02T07:30:09.557Z,2.40
2023-04-02T07:31:09.601Z,2.45
2023-04-02T07:32:09.582Z,2.46
2023-04-02T07:33:09.558Z,2.49
2023-04-02T07:34:09.505Z,2.46
2023-04-02T07:35:09.503Z,2.45
2023-04-02T07:36:09.584Z,2.41
2023-04-02T07:37:09.453Z,2.44
2023-04-02T07:38:09.608Z,2.49
2023-04-02T07:39:09.471Z,2.63
2023-04-02T07:40:09.447Z,2.69
2023-04-02T07:41:09.458Z,2.76
2023-04-02T07:42:09.495Z,2.73
2023-04-02T07:43:09.420Z,2.71
2023-04-02T07:44:09.408Z,2.71
2023-04-02T07:45:09.418Z,2.70
2023-04-02T07:46:09.410Z,2.76
2023-04-02T07:47:09.480Z,2.73
2023-04-02T07:48:09.561Z,2.71
2023-04-02T07:49:09.363Z,2.73
2023-04-02T07:50:09.374Z,2.74
2023-04-02T07:51:09.385Z,2.81
2023-04-02T07:52:09.327Z,2.79
2023-04-02T07:53:09.320Z,2.87
2023-04-02T07:54:09.350Z,2.92
2023-04-02T07:55:09.305Z,2.98
2023-04-02T07:56:09.302Z,3.05
2023-04-02T07:57:09.303Z,3.06
2023-04-02T07:58:09.273Z,3.12
2023-04-02T07:59:09.248Z,3.10
2023-04-02T08:00:09.257Z,3.15
2023-04-02T08:01:09.225Z,3.23
2023-04-02T08:02:09.227Z,3.13
2023-04-02T08:03:09.325Z,3.10
2023-04-02T08:04:09.233Z,3.03
2023-04-02T08:05:09.198Z,3.06
2023-04-02T08:06:09.192Z,3.09
2023-04-02T08:07:09.168Z,3.03
2023-04-02T08:08:09.164Z,3.09
2023-04-02T08:09:09.151Z,3.23
2023-04-02T08:10:09.157Z,3.28
2023-04-02T08:11:09.161Z,3.43
2023-04-02T08:12:09.124Z,3.57
2023-04-02T08:13:09.102Z,3.60
2023-04-02T08:14:09.100Z,3.58
2023-04-02T08:15:09.211Z,3.57
2023-04-02T08:16:09.140Z,3.57
2023-04-02T08:17:09.060Z,3.61
2023-04-02T08:18:09.085Z,3.54
2023-04-02T08:19:09.037Z,3.57
2023-04-02T08:20:09.037Z,3.62
2023-04-02T08:21:09.040Z,3.60
2023-04-02T08:22:09.026Z,3.65
2023-04-02T08:23:09.005Z,3.65
2023-04-02T08:24:09.048Z,3.71
2023-04-02T08:25:08.973Z,3.88
2023-04-02T08:26:08.981Z,3.85
2023-04-02T08:27:08.997Z,3.78
2023-04-02T08:28:08.955Z,3.72
2023-04-02T08:29:08.960Z,3.64
2023-04-02T08:30:08.931Z,3.62
2023-04-02T08:31:09.043Z,3.44
2023-04-02T08:32:08.920Z,3.46
2023-04-02T08:33:08.934Z,3.43
2023-04-02T08:34:09.070Z,3.47
2023-04-02T08:35:08.878Z,3.54
2023-04-02T08:36:10.428Z,3.65
2023-04-02T08:37:08.854Z,3.71
2023-04-02T08:38:08.868Z,3.70
2023-04-02T08:39:08.850Z,3.61
2023-04-02T08:40:08.829Z,3.60
2023-04-02T08:41:08.827Z,3.44
2023-04-02T08:42:08.821Z,3.33
2023-04-02T08:43:08.819Z,3.33
2023-04-02T08:44:08.803Z,3.28
2023-04-02T08:45:23.723Z,3.25
2023-04-02T08:46:08.836Z,3.28
2023-04-02T08:47:08.774Z,3.31
2023-04-02T08:48:08.818Z,3.42
2023-04-02T08:49:08.744Z,3.33
2023-04-02T08:50:08.729Z,3.33
2023-04-02T08:51:08.707Z,3.36
2023-04-02T08:52:08.766Z,3.42
2023-04-02T08:53:08.695Z,3.40
2023-04-02T08:54:08.717Z,3.43
2023-04-02T08:55:08.667Z,3.50
2023-04-02T08:56:08.668Z,3.50
2023-04-02T08:57:08.704Z,3.42
2023-04-02T08:58:08.635Z,3.36
2023-04-02T08:59:08.700Z,3.31
2023-04-02T09:00:08.620Z,3.40
2023-04-02T09:01:08.689Z,3.49
2023-04-02T09:02:08.589Z,3.60
2023-04-02T09:03:08.624Z,3.60
2023-04-02T09:04:08.614Z,3.57
2023-04-02T09:05:08.691Z,3.58
2023-04-02T09:06:08.547Z,3.49
2023-04-02T09:07:08.547Z,3.39
2023-04-02T09:08:08.523Z,3.31
2023-04-02T09:09:08.543Z,3.40
2023-04-02T09:10:08.545Z,3.52
2023-04-02T09:11:08.511Z,3.53
2023-04-02T09:12:08.487Z,3.47
2023-04-02T09:13:08.487Z,3.54
2023-04-02T09:14:08.484Z,3.68
2023-04-02T09:15:08.468Z,3.71
2023-04-02T09:16:08.510Z,3.76
2023-04-02T09:17:08.450Z,3.79
2023-04-02T09:18:08.442Z,3.79
2023-04-02T09:19:08.429Z,3.60
2023-04-02T09:20:08.411Z,3.57
2023-04-02T09:21:08.437Z,3.65
2023-04-02T09:22:08.387Z,3.72
2023-04-02T09:23:08.399Z,3.64
2023-04-02T09:24:08.375Z,3.61
2023-04-02T09:25:14.954Z,3.57
2023-04-02T09:26:08.370Z,3.68
2023-04-02T09:27:08.380Z,3.61
2023-04-02T09:28:08.322Z,3.61
2023-04-02T09:29:08.357Z,3.61
2023-04-02T09:30:08.305Z,3.72
2023-04-02T09:31:08.340Z,3.75
2023-04-02T09:32:08.290Z,3.85
2023-04-02T09:33:08.364Z,3.85
2023-04-02T09:34:08.261Z,3.76
2023-04-02T09:35:15.059Z,3.82
2023-04-02T09:36:08.269Z,3.88
2023-04-02T09:37:08.262Z,3.92
2023-04-02T09:38:08.276Z,3.96
2023-04-02T09:39:08.256Z,3.90
2023-04-02T09:40:08.253Z,3.90
2023-04-02T09:41:08.206Z,3.97
2023-04-02T09:42:08.189Z,3.94
2023-04-02T09:43:08.191Z,3.83
2023-04-02T09:44:08.183Z,3.72
2023-04-02T09:45:08.172Z,3.79
2023-04-02T09:46:08.170Z,3.92
2023-04-02T09:47:08.147Z,4.08
2023-04-02T09:48:08.767Z,4.07
2023-04-02T09:49:08.127Z,4.07
2023-04-02T09:50:08.151Z,4.04
2023-04-02T09:51:08.160Z,4.15
2023-04-02T09:52:08.113Z,4.22
2023-04-02T09:53:08.080Z,4.29
2023-04-02T09:54:08.118Z,4.33
2023-04-02T09:55:08.101Z,4.42
2023-04-02T09:56:08.050Z,4.42
2023-04-02T09:57:08.175Z,4.47
2023-04-02T09:58:08.026Z,4.37
2023-04-02T09:59:08.390Z,4.34
2023-04-02T10:00:12.280Z,4.42
2023-04-02T10:01:08.116Z,4.54
2023-04-02T10:02:07.997Z,4.65
2023-04-02T10:03:08.046Z,4.62
2023-04-02T10:04:08.066Z,4.92
2023-04-02T10:05:08.829Z,4.95
2023-04-02T10:06:07.944Z,5.04
2023-04-02T10:07:07.959Z,5.34
2023-04-02T10:08:07.924Z,5.67
2023-04-02T10:09:07.923Z,5.85
2023-04-02T10:10:07.921Z,5.67
2023-04-02T10:11:07.891Z,5.64
2023-04-02T10:12:08.323Z,5.53
2023-04-02T10:13:07.878Z,5.60
2023-04-02T10:14:08.066Z,5.75
2023-04-02T10:15:07.900Z,5.88
2023-04-02T10:16:07.925Z,6.03
2023-04-02T10:17:07.863Z,6.10
2023-04-02T10:18:07.904Z,6.21
2023-04-02T10:19:07.854Z,6.18
2023-04-02T10:20:07.809Z,6.21
2023-04-02T10:21:07.794Z,5.93
2023-04-02T10:22:07.774Z,5.88
2023-04-02T10:23:07.792Z,6.16
2023-04-02T10:24:07.772Z,6.38
2023-04-02T10:25:07.743Z,6.32
2023-04-02T10:26:07.719Z,6.43
2023-04-02T10:27:07.741Z,6.53
2023-04-02T10:28:07.720Z,5.96
2023-04-02T10:29:07.760Z,5.91
2023-04-02T10:30:07.710Z,5.95
2023-04-02T10:31:07.725Z,6.10
2023-04-02T10:32:07.685Z,6.30
2023-04-02T10:33:07.704Z,6.47
2023-04-02T10:34:07.653Z,6.48
2023-04-02T10:35:07.685Z,6.33
2023-04-02T10:36:07.781Z,6.11
2023-04-02T10:37:07.649Z,6.10
2023-04-02T10:38:07.627Z,5.88
2023-04-02T10:39:07.597Z,5.88
2023-04-02T10:40:07.602Z,5.73
2023-04-02T10:41:07.593Z,5.81
2023-04-02T10:42:07.569Z,5.86
2023-04-02T10:43:07.589Z,5.92
2023-04-02T10:44:18.940Z,6.03
2023-04-02T10:45:07.559Z,6.18
2023-04-02T10:46:07.583Z,6.10
2023-04-02T10:47:07.533Z,5.82
2023-04-02T10:48:07.574Z,5.67
2023-04-02T10:49:07.602Z,5.70
2023-04-02T10:50:07.476Z,5.68
2023-04-02T10:51:07.492Z,5.78
2023-04-02T10:52:07.473Z,5.91
2023-04-02T10:53:07.488Z,5.66
2023-04-02T10:54:07.517Z,5.60
2023-04-02T10:55:07.448Z,5.57
2023-04-02T10:56:07.423Z,5.66
2023-04-02T10:57:07.516Z,5.67
2023-04-02T10:58:07.419Z,5.77
2023-04-02T10:59:07.428Z,5.66
2023-04-02T11:00:07.403Z,5.66
2023-04-02T11:01:07.411Z,5.77
2023-04-02T11:02:07.357Z,5.91
2023-04-02T11:03:07.505Z,5.96
2023-04-02T11:04:07.360Z,5.95
2023-04-02T11:05:07.364Z,5.92
2023-04-02T11:06:07.317Z,6.01
2023-04-02T11:07:14.302Z,6.01
2023-04-02T11:08:07.314Z,6.09
2023-04-02T11:09:07.312Z,6.22
2023-04-02T11:10:07.303Z,6.14
2023-04-02T11:11:07.292Z,6.04
2023-04-02T11:12:07.278Z,5.91
2023-04-02T11:13:07.257Z,5.85
2023-04-02T11:14:07.265Z,5.88
2023-04-02T11:15:07.234Z,6.00
2023-04-02T11:16:07.277Z,6.19
2023-04-02T11:17:07.207Z,6.35
2023-04-02T11:18:07.200Z,6.40
2023-04-02T11:19:07.228Z,6.46
2023-04-02T11:20:07.221Z,6.59
2023-04-02T11:21:07.181Z,6.58
2023-04-02T11:22:07.168Z,6.46
2023-04-02T11:23:07.143Z,6.54
2023-04-02T11:24:07.143Z,6.33
2023-04-02T11:25:07.149Z,6.10
2023-04-02T11:26:07.107Z,5.98
2023-04-02T11:27:07.121Z,5.91
2023-04-02T11:28:07.117Z,5.89
2023-04-02T11:29:07.093Z,5.78
2023-04-02T11:30:07.103Z,5.74
2023-04-02T11:31:07.108Z,5.68
2023-04-02T11:32:07.054Z,5.48
2023-04-02T11:33:07.107Z,5.38
2023-04-02T11:34:07.029Z,5.20
2023-04-02T11:35:09.851Z,5.12
2023-04-02T11:36:07.052Z,5.14
2023-04-02T11:37:07.041Z,5.17
2023-04-02T11:38:06.983Z,5.17
2023-04-02T11:39:16.580Z,5.20
2023-04-02T11:40:07.176Z,5.23
2023-04-02T11:41:06.966Z,5.23
2023-04-02T11:42:06.957Z,5.43
2023-04-02T11:43:06.953Z,5.56
2023-04-02T11:44:06.978Z,5.75
2023-04-02T11:45:06.968Z,5.89
2023-04-02T11:46:06.922Z,6.21
2023-04-02T11:47:06.904Z,6.54
2023-04-02T11:48:06.942Z,6.83
2023-04-02T11:49:06.880Z,6.98
2023-04-02T11:50:06.914Z,7.05
2023-04-02T11:51:06.911Z,6.99
2023-04-02T11:52:12.318Z,6.94
2023-04-02T11:53:06.863Z,7.02
2023-04-02T11:54:06.834Z,7.09
2023-04-02T11:55:06.833Z,7.05
2023-04-02T11:56:06.808Z,7.22
2023-04-02T11:57:06.857Z,7.37
2023-04-02T11:58:06.781Z,7.56
2023-04-02T11:59:06.793Z,7.53
2023-04-02T12:00:06.800Z,7.34
2023-04-02T12:01:06.757Z,7.23
2023-04-02T12:02:06.824Z,7.05
2023-04-02T12:03:06.883Z,6.97
2023-04-02T12:04:06.751Z,6.95
2023-04-02T12:05:06.830Z,6.95
2023-04-02T12:06:06.725Z,6.97
2023-04-02T12:07:06.697Z,6.97
2023-04-02T12:08:06.676Z,6.89
2023-04-02T12:09:06.675Z,6.79
2023-04-02T12:10:06.704Z,6.73
2023-04-02T12:11:06.660Z,6.68
2023-04-02T12:12:06.664Z,6.79
2023-04-02T12:13:06.631Z,6.90
2023-04-02T12:14:06.612Z,6.90
2023-04-02T12:15:06.619Z,7.02
2023-04-02T12:16:06.605Z,7.22
2023-04-02T12:17:09.304Z,7.34
2023-04-02T12:18:06.637Z,7.34
2023-04-02T12:19:06.570Z,7.53
2023-04-02T12:20:06.557Z,7.42
2023-04-02T12:21:06.545Z,7.26
2023-04-02T12:22:06.533Z,7.31
2023-04-02T12:23:06.537Z,7.47
2023-04-02T12:24:06.514Z,7.47
2023-04-02T12:25:06.602Z,7.52
2023-04-02T12:26:06.488Z,7.41
2023-04-02T12:27:06.488Z,7.52
2023-04-02T12:28:06.488Z,7.58
2023-04-02T12:29:06.454Z,7.63
2023-04-02T12:30:06.461Z,7.74
2023-04-02T12:31:06.471Z,7.78
2023-04-02T12:32:06.424Z,7.84
2023-04-02T12:33:06.422Z,7.93
2023-04-02T12:34:06.431Z,7.90
2023-04-02T12:35:06.401Z,7.72
2023-04-02T12:36:06.394Z,7.24
2023-04-02T12:37:06.377Z,6.98
2023-04-02T12:38:06.351Z,6.87
2023-04-02T12:39:06.363Z,6.95
2023-04-02T12:40:06.401Z,6.98
2023-04-02T12:41:06.323Z,6.99
2023-04-02T12:42:06.300Z,6.99
2023-04-02T12:43:06.349Z,6.95
2023-04-02T12:44:06.329Z,6.66
2023-04-02T12:45:06.315Z,6.41
2023-04-02T12:46:06.313Z,6.33
2023-04-02T12:47:06.285Z,6.29
2023-04-02T12:48:06.268Z,6.16
2023-04-02T12:49:06.315Z,6.13
2023-04-02T12:50:06.265Z,6.14
2023-04-02T12:51:06.279Z,6.22
2023-04-02T12:52:06.210Z,6.35
2023-04-02T12:53:06.217Z,6.50
2023-04-02T12:54:06.216Z,6.61
2023-04-02T12:55:06.191Z,6.53
2023-04-02T12:56:06.171Z,6.56
2023-04-02T12:57:06.184Z,6.66
2023-04-02T12:58:06.149Z,6.76
2023-04-02T12:59:06.162Z,6.77
2023-04-02T13:00:06.391Z,6.72
2023-04-02T13:01:06.119Z,6.89
2023-04-02T13:02:06.219Z,6.97
2023-04-02T13:03:06.169Z,6.99
2023-04-02T13:04:06.201Z,7.09
2023-04-02T13:05:06.087Z,7.17
2023-04-02T13:06:12.617Z,6.99
2023-04-02T13:07:06.648Z,7.02
2023-04-02T13:08:06.653Z,6.97
2023-04-02T13:09:06.052Z,6.91
2023-04-02T13:10:06.040Z,6.79
2023-04-02T13:11:06.061Z,6.71
2023-04-02T13:12:06.028Z,6.62
2023-04-02T13:13:05.995Z,6.61
2023-04-02T13:14:06.010Z,6.58
2023-04-02T13:15:05.959Z,6.59
2023-04-02T13:16:06.018Z,6.56
2023-04-02T13:17:05.969Z,6.54
2023-04-02T13:18:05.954Z,6.59
2023-04-02T13:19:05.970Z,6.69
2023-04-02T13:20:05.973Z,6.71
2023-04-02T13:21:05.914Z,6.81
2023-04-02T13:22:05.925Z,6.87
2023-04-02T13:23:05.905Z,6.89
2023-04-02T13:24:05.880Z,6.94
2023-04-02T13:25:05.899Z,7.01
2023-04-02T13:26:05.878Z,6.86
2023-04-02T13:27:05.877Z,6.81
2023-04-02T13:28:05.847Z,6.90
2023-04-02T13:29:05.812Z,6.81
2023-04-02T13:30:05.842Z,6.81
2023-04-02T13:31:05.845Z,6.91
2023-04-02T13:32:05.825Z,6.97
2023-04-02T13:33:05.807Z,6.99
2023-04-02T13:34:05.771Z,6.97
2023-04-02T13:35:05.768Z,6.83
2023-04-02T13:36:05.842Z,6.84
2023-04-02T13:37:05.783Z,6.81
2023-04-02T13:38:05.759Z,6.76
2023-04-02T13:39:05.721Z,6.71
2023-04-02T13:40:06.706Z,6.65
2023-04-02T13:41:05.703Z,6.72
2023-04-02T13:42:05.774Z,6.79
2023-04-02T13:43:05.700Z,6.90
2023-04-02T13:44:05.672Z,7.07
2023-04-02T13:45:05.666Z,7.12
2023-04-02T13:46:05.703Z,7.08
2023-04-02T13:47:05.652Z,7.08
2023-04-02T13:48:05.753Z,7.19
2023-04-02T13:49:05.620Z,7.27
2023-04-02T13:50:05.622Z,7.32
2023-04-02T13:51:05.598Z,7.40
2023-04-02T13:52:05.599Z,7.42
2023-04-02T13:53:05.796Z,7.45
2023-04-02T13:54:05.615Z,7.53
2023-04-02T13:55:05.539Z,7.66
2023-04-02T13:56:05.560Z,7.69
2023-04-02T13:57:05.547Z,7.77